Pwllheli, United Kingdom
Current Conditions -  °F | °C
As of 4:50 AM on Friday 31 Oct 2014 (Local Time) from EGOV Reporting Station
Drizzle Drizzle  
Wind Chill: 61°   Ceiling: 1000
Heat Index: 61°   Visibility: 4mi
Dew Point: 59°   Wind: 25mph
Humidity: 94%   Direction: 180°S
Pressure: 29.83"   Gusts: NA
Location:  52.89°N, 4.41°W
Report Text: EGOV 310450Z 18022KT 7000 -DZ BKN010 16/15 Q1010 GRN
Loading
Personal Weather Stations






























Interactive Weather Map New forecast layout! Learn more

10-Day Weather Forecast

Advertisements
Track Severe Weather on mobile